createdAt,value
2019-05-09T00:02:03.939Z,9.10
2019-05-09T00:04:35.328Z,9.10
2019-05-09T00:07:04.015Z,9.10
2019-05-09T00:09:33.607Z,9.10
2019-05-09T00:12:03.686Z,9.00
2019-05-09T00:14:34.225Z,9.10
2019-05-09T00:17:03.665Z,9.00
2019-05-09T00:19:33.473Z,9.00
2019-05-09T00:22:03.344Z,9.00
2019-05-09T00:24:33.302Z,9.00
2019-05-09T00:27:03.783Z,8.90
2019-05-09T00:29:33.803Z,8.90
2019-05-09T00:32:05.232Z,8.90
2019-05-09T00:34:54.012Z,8.90
2019-05-09T00:37:24.539Z,8.90
2019-05-09T00:39:54.797Z,8.80
2019-05-09T00:42:24.074Z,8.90
2019-05-09T00:44:54.480Z,8.80
2019-05-09T00:47:29.433Z,8.80
2019-05-09T00:49:57.869Z,8.80
2019-05-09T00:52:26.336Z,8.80
2019-05-09T00:54:54.782Z,8.80
2019-05-09T00:57:35.549Z,8.70
2019-05-09T01:00:14.643Z,8.70
2019-05-09T01:02:43.535Z,8.70
2019-05-09T01:05:13.861Z,8.70
2019-05-09T01:07:43.138Z,8.70
2019-05-09T01:10:13.420Z,8.70
2019-05-09T01:12:43.536Z,8.60
2019-05-09T01:15:13.394Z,8.60
2019-05-09T01:17:44.176Z,8.60
2019-05-09T01:20:14.772Z,8.60
2019-05-09T01:22:45.327Z,8.60
2019-05-09T01:25:14.214Z,8.60
2019-05-09T01:27:43.227Z,8.50
2019-05-09T01:30:13.536Z,8.50
2019-05-09T01:32:46.529Z,8.50
2019-05-09T01:35:15.126Z,8.50
2019-05-09T01:37:43.881Z,8.50
2019-05-09T01:40:13.315Z,8.50
2019-05-09T01:42:43.257Z,8.40
2019-05-09T01:45:15.260Z,8.50
2019-05-09T01:47:43.698Z,8.40
2019-05-09T01:50:14.014Z,8.40
2019-05-09T01:52:44.519Z,8.40
2019-05-09T01:55:14.218Z,8.40
2019-05-09T01:57:45.724Z,8.40
2019-05-09T02:00:13.510Z,8.30
2019-05-09T02:02:43.337Z,8.30
2019-05-09T02:05:13.580Z,8.30
2019-05-09T02:07:43.840Z,8.30
2019-05-09T02:10:13.898Z,8.30
2019-05-09T02:12:43.133Z,8.30
2019-05-09T02:15:13.453Z,8.30
2019-05-09T02:17:58.831Z,8.20
2019-05-09T02:20:19.809Z,8.30
2019-05-09T02:22:48.326Z,8.20
2019-05-09T02:25:17.125Z,8.30
2019-05-09T02:27:45.900Z,8.30
2019-05-09T02:30:16.037Z,8.20
2019-05-09T02:32:45.257Z,8.20
2019-05-09T02:35:14.564Z,8.20
2019-05-09T02:37:43.274Z,8.20
2019-05-09T02:40:12.871Z,8.20
2019-05-09T02:42:41.730Z,8.20
2019-05-09T02:45:11.086Z,8.10
2019-05-09T02:47:39.630Z,8.10
2019-05-09T02:50:09.804Z,8.10
2019-05-09T02:52:39.925Z,8.10
2019-05-09T02:55:10.319Z,8.10
2019-05-09T02:57:39.577Z,8.00
2019-05-09T03:00:19.933Z,8.00
2019-05-09T03:02:49.268Z,8.00
2019-05-09T03:05:19.557Z,8.00
2019-05-09T03:07:50.806Z,8.00
2019-05-09T03:10:20.561Z,7.90
2019-05-09T03:12:50.973Z,7.90
2019-05-09T03:15:20.166Z,7.90
2019-05-09T03:17:49.643Z,7.90
2019-05-09T03:23:09.466Z,7.90
2019-05-09T03:25:40.926Z,7.80
2019-05-09T03:28:11.070Z,7.80
2019-05-09T03:30:53.224Z,7.80
2019-05-09T03:33:22.122Z,7.80
2019-05-09T03:35:50.904Z,7.70
2019-05-09T03:38:20.908Z,7.80
2019-05-09T03:40:49.707Z,7.70
2019-05-09T03:43:18.505Z,7.70
2019-05-09T03:45:51.373Z,7.70
2019-05-09T03:48:33.481Z,7.70
2019-05-09T03:51:02.345Z,7.70
2019-05-09T03:53:32.530Z,7.70
2019-05-09T03:56:02.774Z,7.60
2019-05-09T03:58:31.586Z,7.60
2019-05-09T04:01:00.294Z,7.70
2019-05-09T04:03:28.791Z,7.70
2019-05-09T04:06:02.572Z,7.70
2019-05-09T04:08:28.208Z,7.60
2019-05-09T04:10:58.704Z,7.60
2019-05-09T04:13:29.032Z,7.70
2019-05-09T04:15:58.732Z,7.70
2019-05-09T04:18:27.777Z,7.70
2019-05-09T04:20:57.377Z,7.70
2019-05-09T04:23:27.567Z,7.70
2019-05-09T04:26:09.844Z,7.70
2019-05-09T04:28:39.963Z,7.70
2019-05-09T04:31:08.524Z,7.80
2019-05-09T04:33:38.319Z,7.80
2019-05-09T04:36:08.327Z,7.80
2019-05-09T04:38:39.774Z,7.80
2019-05-09T04:41:07.806Z,7.80
2019-05-09T04:43:39.766Z,7.80
2019-05-09T04:46:12.843Z,7.80
2019-05-09T04:48:43.137Z,7.90
2019-05-09T04:51:12.443Z,7.90
2019-05-09T04:53:41.145Z,7.90
2019-05-09T04:56:18.812Z,8.00
2019-05-09T04:58:48.217Z,8.00
2019-05-09T05:01:29.311Z,8.10
2019-05-09T05:03:58.539Z,8.10
2019-05-09T05:06:28.062Z,8.20
2019-05-09T05:08:58.583Z,8.20
2019-05-09T05:11:31.849Z,8.30
2019-05-09T05:14:00.312Z,8.30
2019-05-09T05:16:28.765Z,8.30
2019-05-09T05:18:58.397Z,8.40
2019-05-09T05:21:28.428Z,8.40
2019-05-09T05:23:59.175Z,8.50
2019-05-09T05:26:31.322Z,8.50
2019-05-09T05:29:00.151Z,8.60
2019-05-09T05:31:28.744Z,8.70
2019-05-09T05:34:00.476Z,8.80
2019-05-09T05:36:29.537Z,8.90
2019-05-09T05:38:58.568Z,9.00
2019-05-09T05:41:28.701Z,9.10
2019-05-09T05:44:00.252Z,9.10
2019-05-09T05:46:30.408Z,9.20
2019-05-09T05:48:58.955Z,9.30
2019-05-09T05:51:27.911Z,9.50
2019-05-09T05:53:57.354Z,9.50
2019-05-09T05:56:28.912Z,9.70
2019-05-09T05:58:58.266Z,9.80
2019-05-09T06:01:27.917Z,9.90
2019-05-09T06:03:58.544Z,10.10
2019-05-09T06:06:27.945Z,10.20
2019-05-09T06:08:57.925Z,10.40
2019-05-09T06:11:28.086Z,10.60
2019-05-09T06:14:04.299Z,10.70
2019-05-09T06:16:28.133Z,10.90
2019-05-09T06:18:58.540Z,11.10
2019-05-09T06:21:28.244Z,11.30
2019-05-09T06:23:58.408Z,11.40
2019-05-09T06:26:29.196Z,11.60
2019-05-09T06:28:58.435Z,11.70
2019-05-09T06:31:28.486Z,11.90
2019-05-09T06:34:00.192Z,12.00
2019-05-09T06:36:28.669Z,12.20
2019-05-09T06:38:58.786Z,12.30
2019-05-09T06:41:28.548Z,12.50
2019-05-09T06:44:13.205Z,12.70
2019-05-09T06:46:30.886Z,12.90
2019-05-09T06:49:20.168Z,13.10
2019-05-09T06:51:30.830Z,13.30
2019-05-09T06:53:59.640Z,13.50
2019-05-09T06:56:28.463Z,13.60
2019-05-09T06:58:58.284Z,13.90
2019-05-09T07:01:31.533Z,14.00
2019-05-09T07:04:18.382Z,14.10
2019-05-09T07:06:59.210Z,14.10
2019-05-09T07:09:29.722Z,14.10
2019-05-09T07:11:58.763Z,14.30
2019-05-09T07:14:31.882Z,14.20
2019-05-09T07:16:58.543Z,14.30
2019-05-09T07:19:27.979Z,14.20
2019-05-09T07:22:18.468Z,14.30
2019-05-09T07:25:09.938Z,14.50
2019-05-09T07:27:42.821Z,14.80
2019-05-09T07:30:18.580Z,14.80
2019-05-09T07:33:05.204Z,14.80
2019-05-09T07:35:34.085Z,14.70
2019-05-09T07:38:02.554Z,14.60
2019-05-09T07:40:31.660Z,14.50
2019-05-09T07:43:00.123Z,14.50
2019-05-09T07:45:28.903Z,14.50
2019-05-09T07:47:58.312Z,14.50
2019-05-09T07:50:27.698Z,14.50
2019-05-09T07:52:58.237Z,14.70
2019-05-09T07:55:27.513Z,14.90
2019-05-09T07:57:58.774Z,15.20
2019-05-09T08:00:34.189Z,15.40
2019-05-09T08:03:03.125Z,15.50
2019-05-09T08:05:32.140Z,15.60
2019-05-09T08:08:00.666Z,15.60
2019-05-09T08:10:32.955Z,15.50
2019-05-09T08:12:59.875Z,15.40
2019-05-09T08:15:28.410Z,15.40
2019-05-09T08:17:59.066Z,15.50
2019-05-09T08:20:27.952Z,15.50
2019-05-09T08:22:58.596Z,15.50
2019-05-09T08:25:27.726Z,15.60
2019-05-09T08:27:58.744Z,15.70
2019-05-09T08:30:32.947Z,15.80
2019-05-09T08:32:59.880Z,15.80
2019-05-09T08:35:28.078Z,15.80
2019-05-09T08:37:58.274Z,15.90
2019-05-09T08:40:28.442Z,16.00
2019-05-09T08:42:58.852Z,16.10
2019-05-09T08:45:31.045Z,16.40
2019-05-09T08:47:57.990Z,16.50
2019-05-09T08:50:38.955Z,16.60
2019-05-09T08:53:08.315Z,16.70
2019-05-09T08:55:38.289Z,16.90
2019-05-09T08:58:08.017Z,16.90
2019-05-09T09:00:39.146Z,17.20
2019-05-09T09:03:08.126Z,17.20
2019-05-09T09:05:38.180Z,17.30
2019-05-09T09:08:08.399Z,17.20
2019-05-09T09:10:38.823Z,17.00
2019-05-09T09:13:09.208Z,17.00
2019-05-09T09:16:02.917Z,17.20
2019-05-09T09:18:08.838Z,17.40
2019-05-09T09:20:38.293Z,17.70
2019-05-09T09:23:08.940Z,17.70
2019-05-09T09:25:38.843Z,17.60
2019-05-09T09:28:08.689Z,17.90
2019-05-09T09:30:38.666Z,18.20
2019-05-09T09:33:11.387Z,18.20
2019-05-09T09:35:38.355Z,18.20
2019-05-09T09:38:09.035Z,18.30
2019-05-09T09:40:38.456Z,18.40
2019-05-09T09:43:09.223Z,18.20
2019-05-09T09:45:37.895Z,18.10
2019-05-09T09:48:09.098Z,18.20
2019-05-09T09:50:38.268Z,18.20
2019-05-09T09:53:08.634Z,18.30
2019-05-09T09:55:38.643Z,18.10
2019-05-09T09:58:08.263Z,18.00
2019-05-09T10:01:02.787Z,18.10
2019-05-09T10:03:29.813Z,18.20
2019-05-09T10:05:58.619Z,18.20
2019-05-09T10:08:27.390Z,18.10
2019-05-09T10:10:58.853Z,17.90
2019-05-09T10:13:28.574Z,17.80
2019-05-09T10:16:01.454Z,17.70
2019-05-09T10:18:38.159Z,17.80
2019-05-09T10:21:08.457Z,17.70
2019-05-09T10:23:37.826Z,17.50
2019-05-09T10:26:08.527Z,17.50
2019-05-09T10:28:38.022Z,17.60
2019-05-09T10:31:06.873Z,17.50
2019-05-09T10:33:37.477Z,17.50
2019-05-09T10:36:08.243Z,17.50
2019-05-09T10:38:38.647Z,17.50
2019-05-09T10:41:10.988Z,17.60
2019-05-09T10:43:57.677Z,17.70
2019-05-09T10:46:49.437Z,17.80
2019-05-09T10:49:08.480Z,17.70
2019-05-09T10:51:37.511Z,17.50
2019-05-09T10:54:08.126Z,17.60
2019-05-09T10:56:38.391Z,17.60
2019-05-09T10:59:07.923Z,17.80
2019-05-09T11:01:38.099Z,18.00
2019-05-09T11:04:08.153Z,18.10
2019-05-09T11:06:38.284Z,18.10
2019-05-09T11:09:11.247Z,18.10
2019-05-09T11:11:40.209Z,18.20
2019-05-09T11:14:10.475Z,18.20
2019-05-09T11:16:45.906Z,18.20
2019-05-09T11:19:09.118Z,18.30
2019-05-09T11:21:39.440Z,18.40
2019-05-09T11:24:08.482Z,18.40
2019-05-09T11:26:39.528Z,18.50
2019-05-09T11:29:09.390Z,18.50
2019-05-09T11:31:38.639Z,18.60
2019-05-09T11:34:08.895Z,18.90
2019-05-09T11:36:38.236Z,19.10
2019-05-09T11:39:10.696Z,19.40
2019-05-09T11:41:38.596Z,19.50
2019-05-09T11:44:08.452Z,19.70
2019-05-09T11:46:38.245Z,19.80
2019-05-09T11:49:08.706Z,19.80
2019-05-09T11:51:37.275Z,20.10
2019-05-09T11:54:08.885Z,20.20
2019-05-09T11:56:38.188Z,20.40
2019-05-09T11:59:07.833Z,20.70
2019-05-09T12:01:39.468Z,20.90
2019-05-09T12:04:08.027Z,21.00
2019-05-09T12:06:38.387Z,21.00
2019-05-09T12:09:08.894Z,20.90
2019-05-09T12:11:41.332Z,20.60
2019-05-09T12:14:08.955Z,20.40
2019-05-09T12:16:38.222Z,20.50
2019-05-09T12:19:07.241Z,20.60
2019-05-09T12:21:44.807Z,20.70
2019-05-09T12:24:06.044Z,20.60
2019-05-09T12:26:34.885Z,20.60
2019-05-09T12:29:03.359Z,20.70
2019-05-09T12:31:32.144Z,20.90
2019-05-09T12:34:01.049Z,21.30
2019-05-09T12:36:29.745Z,21.70
2019-05-09T12:38:59.617Z,22.00
2019-05-09T12:41:31.699Z,22.00
2019-05-09T12:44:00.149Z,21.70
2019-05-09T12:46:28.929Z,21.70
2019-05-09T12:48:59.245Z,21.80
2019-05-09T12:51:30.012Z,21.60
2019-05-09T12:53:58.779Z,21.20
2019-05-09T12:56:28.757Z,21.20
2019-05-09T12:58:58.293Z,21.40
2019-05-09T13:01:27.038Z,21.90
2019-05-09T13:03:58.075Z,22.10
2019-05-09T13:06:28.931Z,22.20
2019-05-09T13:08:58.800Z,22.20
2019-05-09T13:11:28.095Z,22.00
2019-05-09T13:13:56.697Z,21.80
2019-05-09T13:16:40.687Z,21.70
2019-05-09T13:19:08.239Z,21.50
2019-05-09T13:21:39.171Z,21.30
2019-05-09T13:24:08.516Z,21.50
2019-05-09T13:26:38.477Z,21.80
2019-05-09T13:29:08.054Z,22.10
2019-05-09T13:31:39.138Z,22.20
2019-05-09T13:34:08.027Z,22.30
2019-05-09T13:36:37.068Z,22.40
2019-05-09T13:39:09.150Z,22.50
2019-05-09T13:41:39.603Z,22.50
2019-05-09T13:44:13.279Z,22.40
2019-05-09T13:46:38.952Z,22.40
2019-05-09T13:49:12.455Z,22.60
2019-05-09T13:51:47.603Z,22.60
2019-05-09T13:54:08.362Z,22.40
2019-05-09T13:56:37.265Z,22.40
2019-05-09T13:59:08.033Z,22.30
2019-05-09T14:01:37.828Z,22.10
2019-05-09T14:04:07.852Z,22.00
2019-05-09T14:06:38.694Z,21.80
2019-05-09T14:09:10.229Z,21.60
2019-05-09T14:11:38.946Z,21.40
2019-05-09T14:14:07.881Z,21.20
2019-05-09T14:16:38.982Z,21.10
2019-05-09T14:19:26.020Z,21.00
2019-05-09T14:21:40.359Z,20.90
2019-05-09T14:24:15.040Z,20.80
2019-05-09T14:26:40.188Z,20.60
2019-05-09T14:29:12.622Z,20.30
2019-05-09T14:31:39.177Z,20.30
2019-05-09T14:34:09.094Z,20.10
2019-05-09T14:36:39.092Z,20.00
2019-05-09T14:39:09.226Z,20.00
2019-05-09T14:41:39.100Z,19.80
2019-05-09T14:44:09.325Z,19.60
2019-05-09T14:46:39.138Z,19.60
2019-05-09T14:49:08.111Z,19.90
2019-05-09T14:51:38.083Z,20.20
2019-05-09T14:54:08.396Z,20.10
2019-05-09T14:56:42.129Z,20.10
2019-05-09T14:59:09.853Z,20.00
2019-05-09T15:01:39.920Z,20.00
2019-05-09T15:04:09.209Z,20.20
2019-05-09T15:06:38.120Z,20.40
2019-05-09T15:09:08.402Z,20.50
2019-05-09T15:11:39.531Z,20.50
2019-05-09T15:14:08.315Z,20.50
2019-05-09T15:16:39.089Z,20.50
2019-05-09T15:19:08.442Z,20.50
2019-05-09T15:21:38.285Z,20.50
2019-05-09T15:24:09.399Z,20.50
2019-05-09T15:26:37.672Z,20.50
2019-05-09T15:29:08.305Z,20.40
2019-05-09T15:31:39.119Z,20.30
2019-05-09T15:34:09.780Z,20.50
2019-05-09T15:36:38.051Z,20.60
2019-05-09T15:39:08.285Z,20.80
2019-05-09T15:41:38.459Z,20.80
2019-05-09T15:44:08.359Z,20.80
2019-05-09T15:46:42.182Z,20.80
2019-05-09T15:49:11.423Z,20.80
2019-05-09T15:51:40.348Z,20.70
2019-05-09T15:54:10.139Z,20.50
2019-05-09T15:56:39.396Z,20.30
2019-05-09T15:59:08.208Z,20.20
2019-05-09T16:01:40.144Z,20.00
2019-05-09T16:04:09.808Z,19.90
2019-05-09T16:06:39.151Z,19.70
2019-05-09T16:09:11.909Z,19.80
2019-05-09T16:11:38.362Z,19.60
2019-05-09T16:14:07.617Z,19.50
2019-05-09T16:16:38.408Z,19.50
2019-05-09T16:19:08.615Z,19.50
2019-05-09T16:21:38.281Z,19.50
2019-05-09T16:24:08.297Z,19.20
2019-05-09T16:26:38.387Z,19.00
2019-05-09T16:29:08.484Z,18.90
2019-05-09T16:31:38.823Z,18.90
2019-05-09T16:34:09.444Z,18.70
2019-05-09T16:36:38.982Z,18.50
2019-05-09T16:39:07.825Z,18.30
2019-05-09T16:41:39.283Z,18.10
2019-05-09T16:44:08.322Z,18.10
2019-05-09T16:46:37.616Z,18.20
2019-05-09T16:49:11.534Z,18.30
2019-05-09T16:51:40.446Z,18.30
2019-05-09T16:54:08.915Z,18.30
2019-05-09T16:56:38.250Z,18.00
2019-05-09T16:59:08.274Z,17.80
2019-05-09T17:01:40.034Z,17.70
2019-05-09T17:04:08.530Z,17.50
2019-05-09T17:06:38.196Z,17.50
2019-05-09T17:09:09.968Z,17.50
2019-05-09T17:11:38.761Z,17.40
2019-05-09T17:14:08.253Z,17.40
2019-05-09T17:16:37.692Z,17.40
2019-05-09T17:19:06.839Z,17.30
2019-05-09T17:21:48.123Z,17.40
2019-05-09T17:24:18.015Z,17.50
2019-05-09T17:26:48.916Z,17.40
2019-05-09T17:29:18.444Z,17.40
2019-05-09T17:31:48.853Z,17.40
2019-05-09T17:34:18.059Z,17.40
2019-05-09T17:36:47.030Z,17.40
2019-05-09T17:39:15.481Z,17.40
2019-05-09T17:41:43.947Z,17.30
2019-05-09T17:44:12.894Z,17.20
2019-05-09T17:46:41.375Z,17.10
2019-05-09T17:49:09.838Z,16.90
2019-05-09T17:51:38.682Z,16.70
2019-05-09T17:54:08.243Z,16.60
2019-05-09T17:56:37.938Z,16.40
2019-05-09T17:59:08.592Z,16.20
2019-05-09T18:01:37.296Z,16.10
2019-05-09T18:04:08.898Z,16.00
2019-05-09T18:06:37.959Z,15.90
2019-05-09T18:09:08.595Z,15.80
2019-05-09T18:11:37.807Z,15.70
2019-05-09T18:14:08.171Z,15.50
2019-05-09T18:16:38.970Z,15.40
2019-05-09T18:19:08.467Z,15.50
2019-05-09T18:21:49.932Z,15.50
2019-05-09T18:24:08.829Z,15.40
2019-05-09T18:26:38.360Z,15.50
2019-05-09T18:29:07.023Z,15.40
2019-05-09T18:31:48.303Z,15.40
2019-05-09T18:34:18.530Z,15.40
2019-05-09T18:36:48.440Z,15.40
2019-05-09T18:39:18.581Z,15.40
2019-05-09T18:41:48.344Z,15.20
2019-05-09T18:44:19.232Z,15.10
2019-05-09T18:46:48.184Z,15.00
2019-05-09T18:49:18.547Z,14.90
2019-05-09T18:52:02.777Z,14.80
2019-05-09T18:54:19.461Z,14.80
2019-05-09T18:56:47.939Z,14.70
2019-05-09T18:59:16.387Z,14.60
2019-05-09T19:01:46.575Z,14.40
2019-05-09T19:04:15.131Z,14.30
2019-05-09T19:06:43.684Z,14.20
2019-05-09T19:09:12.541Z,14.20
2019-05-09T19:11:41.721Z,14.20
2019-05-09T19:14:11.990Z,14.20
2019-05-09T19:16:50.558Z,14.10
2019-05-09T19:19:24.775Z,14.00
2019-05-09T19:21:57.707Z,13.90
2019-05-09T19:24:26.209Z,14.00
2019-05-09T19:26:54.755Z,13.80
2019-05-09T19:29:23.621Z,13.70
2019-05-09T19:31:52.125Z,13.70
2019-05-09T19:34:22.214Z,13.70
2019-05-09T19:36:51.161Z,13.60
2019-05-09T19:39:20.606Z,13.60
2019-05-09T19:41:49.339Z,13.50
2019-05-09T19:44:17.924Z,13.50
2019-05-09T19:46:46.773Z,13.40
2019-05-09T19:49:18.156Z,13.40
2019-05-09T19:51:47.823Z,13.30
2019-05-09T19:54:18.053Z,13.20
2019-05-09T19:56:47.170Z,13.20
2019-05-09T19:59:16.453Z,13.10
2019-05-09T20:01:45.242Z,13.10
2019-05-09T20:04:14.144Z,13.10
2019-05-09T20:06:42.731Z,13.00
2019-05-09T20:09:13.174Z,12.90
2019-05-09T20:11:43.381Z,12.80
2019-05-09T20:14:14.830Z,12.70
2019-05-09T20:16:51.184Z,12.70
2019-05-09T20:19:20.528Z,12.50
2019-05-09T20:21:49.558Z,12.50
2019-05-09T20:24:18.062Z,12.40
2019-05-09T20:26:46.852Z,12.40
2019-05-09T20:29:15.414Z,12.40
2019-05-09T20:31:44.306Z,12.40
2019-05-09T20:34:14.697Z,12.40
2019-05-09T20:36:51.022Z,12.40
2019-05-09T20:39:23.711Z,12.40
2019-05-09T20:41:53.519Z,12.30
2019-05-09T20:44:24.621Z,12.30
2019-05-09T20:46:53.686Z,12.30
2019-05-09T20:49:22.339Z,12.30
2019-05-09T20:51:52.170Z,12.20
2019-05-09T20:54:22.723Z,12.20
2019-05-09T20:56:53.198Z,12.10
2019-05-09T20:59:21.908Z,12.00
2019-05-09T21:01:51.927Z,12.00
2019-05-09T21:04:20.571Z,11.90
2019-05-09T21:06:50.793Z,11.90
2019-05-09T21:09:21.047Z,11.90
2019-05-09T21:11:50.107Z,11.90
2019-05-09T21:14:18.764Z,11.90
2019-05-09T21:16:49.583Z,11.80
2019-05-09T21:19:18.794Z,11.70
2019-05-09T21:21:47.793Z,11.70
2019-05-09T21:24:16.522Z,11.60
2019-05-09T21:26:45.559Z,11.60
2019-05-09T21:29:14.263Z,11.60
2019-05-09T21:31:42.944Z,11.60
2019-05-09T21:34:13.877Z,11.50
2019-05-09T21:36:42.375Z,11.60
2019-05-09T21:39:10.898Z,11.50
2019-05-09T21:41:40.761Z,11.60
2019-05-09T21:44:09.297Z,11.60
2019-05-09T21:46:37.869Z,11.60
2019-05-09T21:49:06.705Z,11.60
2019-05-09T21:51:35.491Z,11.60
2019-05-09T21:54:04.589Z,11.60
2019-05-09T21:56:33.089Z,11.70
2019-05-09T21:59:01.585Z,11.70
2019-05-09T22:01:32.763Z,11.60
2019-05-09T22:04:01.546Z,11.60
2019-05-09T22:06:30.258Z,11.50
2019-05-09T22:08:59.555Z,11.50
2019-05-09T22:11:28.363Z,11.50
2019-05-09T22:13:56.842Z,11.50
2019-05-09T22:16:25.608Z,11.40
2019-05-09T22:18:54.168Z,11.40
2019-05-09T22:21:23.938Z,11.40
2019-05-09T22:23:56.275Z,11.30
2019-05-09T22:26:23.258Z,11.30
2019-05-09T22:28:52.044Z,11.30
2019-05-09T22:31:20.518Z,11.30
2019-05-09T22:33:48.975Z,11.30
2019-05-09T22:36:17.782Z,11.20
2019-05-09T22:38:47.699Z,11.20
2019-05-09T22:41:16.270Z,11.20
2019-05-09T22:43:44.716Z,11.20
2019-05-09T22:46:13.978Z,11.20
2019-05-09T22:48:42.503Z,11.20
2019-05-09T22:51:11.306Z,11.10
2019-05-09T22:53:41.646Z,11.20
2019-05-09T22:59:02.202Z,11.20
2019-05-09T23:01:30.899Z,11.20
2019-05-09T23:04:00.202Z,11.20
2019-05-09T23:06:30.340Z,11.20
2019-05-09T23:09:02.944Z,11.30
2019-05-09T23:11:32.958Z,11.30
2019-05-09T23:14:01.504Z,11.30
2019-05-09T23:16:32.036Z,11.30
2019-05-09T23:19:00.748Z,11.30
2019-05-09T23:21:30.557Z,11.30
2019-05-09T23:24:00.903Z,11.30
2019-05-09T23:26:29.588Z,11.30
2019-05-09T23:28:59.966Z,11.30
2019-05-09T23:31:35.975Z,11.30
2019-05-09T23:34:06.264Z,11.30
2019-05-09T23:36:34.963Z,11.30
2019-05-09T23:39:10.970Z,11.30
2019-05-09T23:41:39.887Z,11.30
2019-05-09T23:44:08.337Z,11.40
2019-05-09T23:46:37.813Z,11.40
2019-05-09T23:49:06.561Z,11.40
2019-05-09T23:51:50.427Z,11.40
2019-05-09T23:54:58.375Z,11.40
2019-05-09T23:58:01.943Z,11.40
